Terminal Aerodrome Forecast
Issued by NWS

Home | Current Version | Previous Version | Text Only | Print | Product List | Glossary On
Versions: 1 2 3 4 5 6 7 8 9 10 11 12 13 14 15 16 17 18 19 20
000
FTUS44 KHGX 191122 CCA
TAFCXO
TAF COR
KCXO 191122Z 1912/2012 10003KT 6SM BR BKN035
     FM191300 07004KT P6SM SCT025 SCT250
     FM191500 09006KT P6SM FEW030
     FM192000 11007KT P6SM SCT035 SCT120
     FM200500 13003KT P6SM SCT025 BKN100=

USA.gov is the U.S. government's official web portal to all federal, state and local government web resources and services.